Houston Lake, Missouri
Current Conditions -  °F | °C
As of 2:54 PM on Thursday 23 Oct 2014 (Local Time) from KMKC Reporting Station
Overcast Overcast  
Wind Chill: 65°   Ceiling: 1300
Heat Index: 65°   Visibility: 7mi
Dew Point: 60°   Wind: 7mph
Humidity: 84%   Direction: 230°SW
Pressure: 30.06"   Gusts: NA
Location:  39.2125°N, 94.6296°W
Report Text: KMKC 231954Z 23006KT 7SM OVC013 18/16 A3006 RMK AO2 SLP176 T01830156
Loading
Personal Weather Stations






























Interactive Weather Map New forecast layout! Learn more

10-Day Weather Forecast

Advertisements
Track Severe Weather on mobile